createdAt,value
2022-12-18T05:04:33.972Z,169.90
2022-12-18T05:05:33.776Z,39.90
2022-12-18T05:06:33.670Z,41.70
2022-12-18T05:07:33.602Z,40.50
2022-12-18T05:08:33.597Z,41.80
2022-12-18T05:09:33.587Z,42.20
2022-12-18T05:10:37.957Z,42.30
2022-12-18T05:11:34.575Z,44.40
2022-12-18T05:12:33.556Z,43.30
2022-12-18T05:13:33.587Z,42.30
2022-12-18T05:14:33.584Z,44.20
2022-12-18T05:15:33.571Z,41.40
2022-12-18T05:16:33.620Z,39.70
2022-12-18T05:17:33.531Z,39.10
2022-12-18T05:18:33.567Z,38.90
2022-12-18T05:19:33.568Z,41.00
2022-12-18T05:20:33.595Z,40.90
2022-12-18T05:21:33.501Z,41.50
2022-12-18T05:22:33.529Z,52.00
2022-12-18T05:23:33.503Z,43.50
2022-12-18T05:24:33.489Z,43.60
2022-12-18T05:25:33.518Z,38.30
2022-12-18T05:26:33.516Z,41.70
2022-12-18T05:27:33.503Z,41.00
2022-12-18T05:28:33.513Z,44.20
2022-12-18T05:29:33.455Z,41.60
2022-12-18T05:30:33.450Z,46.60
2022-12-18T05:31:38.889Z,51.40
2022-12-18T05:32:36.549Z,49.00
2022-12-18T05:33:33.743Z,55.50
2022-12-18T05:34:33.461Z,50.90
2022-12-18T05:35:33.413Z,50.10
2022-12-18T05:36:33.508Z,48.00
2022-12-18T05:37:36.892Z,47.40
2022-12-18T05:38:34.420Z,51.30
2022-12-18T05:39:33.551Z,51.10
2022-12-18T05:40:33.497Z,52.70
2022-12-18T05:41:33.397Z,49.10
2022-12-18T05:42:33.390Z,45.80
2022-12-18T05:43:33.447Z,43.90
2022-12-18T05:44:33.372Z,44.00
2022-12-18T05:45:33.362Z,42.30
2022-12-18T05:46:33.414Z,44.50
2022-12-18T05:47:33.372Z,45.30
2022-12-18T05:48:33.348Z,48.00
2022-12-18T05:49:33.359Z,43.00
2022-12-18T05:50:33.357Z,44.50
2022-12-18T05:51:33.353Z,43.20
2022-12-18T05:52:33.410Z,49.40
2022-12-18T05:53:33.330Z,43.80
2022-12-18T05:54:33.346Z,45.00
2022-12-18T05:55:33.302Z,45.50
2022-12-18T05:56:33.343Z,44.60
2022-12-18T05:57:33.305Z,45.00
2022-12-18T05:58:33.297Z,49.20
2022-12-18T05:59:33.298Z,48.40
2022-12-18T06:00:33.273Z,51.60
2022-12-18T06:01:33.305Z,57.10
2022-12-18T06:02:33.360Z,55.90
2022-12-18T06:03:34.153Z,57.00
2022-12-18T06:04:34.292Z,56.30
2022-12-18T06:05:33.265Z,62.50
2022-12-18T06:06:33.273Z,59.30
2022-12-18T06:07:33.273Z,61.00
2022-12-18T06:08:33.346Z,56.10
2022-12-18T06:09:33.262Z,59.10
2022-12-18T06:10:33.262Z,59.10
2022-12-18T06:11:33.225Z,73.90
2022-12-18T06:12:33.243Z,89.70
2022-12-18T06:13:33.881Z,64.40
2022-12-18T06:14:33.224Z,80.80
2022-12-18T06:15:33.195Z,72.10
2022-12-18T06:16:33.292Z,61.20
2022-12-18T06:17:33.229Z,63.80
2022-12-18T06:18:33.228Z,77.00
2022-12-18T06:19:33.222Z,64.00
2022-12-18T06:20:33.760Z,64.80
2022-12-18T06:21:34.168Z,75.10
2022-12-18T06:22:33.168Z,66.20
2022-12-18T06:23:33.165Z,80.80
2022-12-18T06:24:33.220Z,96.80
2022-12-18T06:25:33.137Z,124.80
2022-12-18T06:26:33.138Z,89.00
2022-12-18T06:27:33.130Z,102.90
2022-12-18T06:28:33.174Z,100.10
2022-12-18T06:29:33.126Z,98.80
2022-12-18T06:30:33.120Z,131.30
2022-12-18T06:31:33.197Z,65.10
2022-12-18T06:32:33.102Z,117.90
2022-12-18T06:33:33.117Z,71.00
2022-12-18T06:34:33.123Z,106.10
2022-12-18T06:35:33.114Z,70.30
2022-12-18T06:36:33.106Z,70.00
2022-12-18T06:37:33.132Z,98.00
2022-12-18T06:38:33.127Z,53.30
2022-12-18T06:39:33.053Z,53.30
2022-12-18T06:40:33.138Z,53.90
2022-12-18T06:41:33.097Z,49.20
2022-12-18T06:42:33.097Z,54.20
2022-12-18T06:43:33.079Z,50.90
2022-12-18T06:44:33.094Z,52.80
2022-12-18T06:45:33.058Z,56.30
2022-12-18T06:46:33.029Z,59.90
2022-12-18T06:47:33.068Z,58.50
2022-12-18T06:48:33.051Z,63.30
2022-12-18T06:49:33.029Z,52.70
2022-12-18T06:50:33.056Z,48.30
2022-12-18T06:51:32.997Z,52.20
2022-12-18T06:52:32.986Z,48.40
2022-12-18T06:53:33.024Z,55.00
2022-12-18T06:54:33.031Z,63.40
2022-12-18T06:55:32.964Z,56.40
2022-12-18T06:56:33.077Z,50.40
2022-12-18T06:57:33.013Z,48.50
2022-12-18T06:58:32.943Z,47.90
2022-12-18T06:59:33.004Z,47.70
2022-12-18T07:00:32.969Z,58.10
2022-12-18T07:01:33.085Z,59.30
